Station info - map view · info · telemetry · weather · raw · status · beacons · messages · bulletins · browse · moving · my account
Callsign, ship name or locator: Clear       
It is possible to search using wildcards (*?) after a prefix. Example: OH*
APRS station KD5UMO-4 - show graphs
Map loading...
Comment: 12.5VEVENT SUPPORT-kd5umo@arrl.net
Location: 38°19.29' N 122°41.02' W - locator CM88PH77XD - show map - static map
1.8 miles Northwest bearing 329° from Penngrove, Sonoma County, California, United States [?]
6.7 miles North bearing 338° from Petaluma, Sonoma County, California, United States
40.4 miles North bearing 339° from San Francisco, San Francisco County, California, United States
80.3 miles Northwest bearing 328° from San Jose, Santa Clara County, California, United States
Last position: 2016-09-25 18:00:08 EDT (3d 22h24m ago)
2016-09-25 15:00:08 PDT local time at Penngrove, United States [?]
Altitude: 91 ft
Course: 310°
Speed: 7 MPH
Device: Argent Data Systems: OpenTracker (tracker)
Last path: KD5UMO-4>APOTC1 via WB6TMS-5*,WIDE1*,WIDE2-2,qAR,K6QXY-7 (good)
Positions stored: 3056
Packet rate: 121 seconds between packets on average during 6031 seconds.
Other SSIDs: KD5UMO KD5UMO-1 KD5UMO-13 KD5UMO-14 KD5UMO-3 KD5UMO-5 KD5UMO-6 KD5UMO-7 KD5UMO-8 KD5UMO-9
Stations near current position of KD5UMO-4 - show more
callsign distance last heard - EDT      callsign distance last heard - EDT
KD5UMO-937.6 yards 237°2016-09-25 16:45:42 N5OOM-575.4 yards 58°2016-09-25 18:00:47
N5OOM-477.2 yards 38°2016-09-25 14:14:01 KD5UMO-588.2 yards 46°2016-09-25 16:46:38
FINISH188.4 yards 345°2016-09-24 13:26:50 KT6CRT215.6 yards 106°2016-09-25 18:46:18
Start-Fin347.2 yards 352°2016-09-25 20:48:56 KM6DVH-SAG-0130.9 miles 10°2016-09-29 14:52:57
KJ6KPS-51.1 miles 299°2016-09-16 08:18:35 EW68291.7 miles 211°2016-09-29 16:24:37
EW86542.0 miles 309°2016-09-29 16:21:24 AB6JP-92.4 miles 321°2016-09-27 15:56:36
WTW RS-A3.0 miles 203°2016-09-24 13:30:19 DW99613.4 miles 162°2016-09-29 16:20:25
KE6LPO-144.4 miles 170°2016-09-26 19:13:31 KB6YNO-104.5 miles 135°2016-09-29 16:05:40
EW75254.9 miles 150°2016-09-29 16:23:44 WTW RS-B5.3 miles 181°2016-09-24 13:30:49
146.91Mhz5.5 miles 81°2016-09-29 16:16:08 K6XLT-105.6 miles 151°2016-09-24 17:23:48
Stations which heard KD5UMO-4 directly on radio –
callsign pkts first heard - EDT last heard longest (tx => rx) longest at - EDT
KD5UMO-1 2 2016-09-08 21:42:05 2016-09-08 21:43:34 EM13PC > EM13PC 17.3 yards 270° 2016-09-08 21:43:34
W6CX-3 3 2016-09-24 14:13:38 2016-09-25 17:16:38 CM88PH > CM97BV 54.4 miles 122° 2016-09-25 17:16:38
WB6TMS-5 52 2016-09-24 11:24:08 2016-09-25 18:00:08 CM88NG > CM88RI 15.7 miles 65° 2016-09-24 17:19:38
KF6TYS-3 97 2016-09-24 11:55:38 2016-09-25 17:42:08 CM88OB > CM88PL 30.1 miles 11° 2016-09-24 15:42:08
WB6TMS-3 35 2016-09-24 12:31:38 2016-09-24 19:28:38 CM88PH > CM87LX 25.7 miles 216° 2016-09-24 19:28:38
N6ZX-3 1 2016-09-24 12:33:08 2016-09-24 12:33:08 CM87PW > CM87UK 39.7 miles 149° 2016-09-24 12:33:08
K6CDF-5 3 2016-09-24 14:42:08 2016-09-25 17:06:08 CM88PE > CM88PU 48.4 miles 358° 2016-09-24 14:42:08
K6CDF-6 11 2016-09-24 18:13:38 2016-09-25 17:15:09 CM88PH > CM88NS 32.3 miles 350° 2016-09-24 18:13:38
W5MRC-14 4 2016-09-01 23:13:35 2016-09-01 23:21:08 EM13PC > EM13RF 15.0 miles 44° 2016-09-01 23:21:08
K5PRK-11 1 2016-09-01 23:18:07 2016-09-01 23:18:07 EM13PC > EM13PC 2.4 miles 77° 2016-09-01 23:18:07
KC6SSM-5 2 2016-09-24 11:36:07 2016-09-24 14:45:07 CM88PG > CM87UV 34.8 miles 140° 2016-09-24 11:36:07
K5UTD 1 2016-09-08 21:41:21 2016-09-08 21:41:21 EM13PC > EM12OX 7.2 miles 196° 2016-09-08 21:41:21
VACA 1 2016-09-24 11:57:09 2016-09-24 11:57:09 CM88PD > CM88WJ 35.6 miles 61° 2016-09-24 11:57:09
GLNVW-1 6 2016-09-24 13:18:07 2016-09-24 14:03:07 CM88RA > CM87VT 22.7 miles 131° 2016-09-24 14:03:07
WB6IVK-1 5 2016-09-24 14:04:38 2016-09-25 13:57:08 CM88RB > CM88SI 23.3 miles 16° 2016-09-24 14:04:38
WB6TMS-8 6 2016-09-24 16:21:08 2016-09-25 17:28:39 CM88PJ > CM88MG 17.4 miles 236° 2016-09-25 10:52:39
WB6TMS-6 3 2016-09-24 14:06:08 2016-09-25 15:09:08 CM88PI > CM88QB 19.8 miles 168° 2016-09-25 15:09:08
K6ETA-7 7 2016-09-24 14:22:38 2016-09-25 11:57:08 CM88PK > CM88QF 14.5 miles 150° 2016-09-25 11:57:08
W6XZZ-1 1 2016-09-24 14:09:07 2016-09-24 14:09:07 CM88RC > CM88RC 0.4 miles 299° 2016-09-24 14:09:07
K6QXY-7 142 2016-09-24 11:17:33 2016-09-25 17:58:37 CM88OA > CM88QL 34.8 miles 14° 2016-09-24 12:21:07
NZ6J-13 47 2016-09-24 12:04:37 2016-09-25 16:34:37 CM88PJ > CM87RW 34.1 miles 167° 2016-09-25 11:33:07

Only position packets which were originated by the station are shown here. The range statistics show some extra long hops, because some digipeaters do not correctly add themselves to the digipeater path. Please check the raw packets.
About this site
This page shows real-time information collected from the Automatic Position Reporting System Internet network (APRS-IS). APRS is used by amateur (ham) radio operators to transmit real-time position information, weather data, telemetry and messages over the radio. A vehicle equipped with a GPS receiver, a VHF transmitter or HF transceiver and a small computer device called a tracker transmits it's location, speed and course in a small data packet, which is then received by a nearby iGate receiving site which forwards the packet on the Internet. Systems connected to the Internet can send information on the APRS-IS without a radio transmitter, or collect and display information transmitted anywhere in the world.
FAQ · Blog · Discussion group · Linking to aprs.fi · AIS sites · Service status · Database statistics · Advertising on aprs.fi · Technical details · API · Change log · Planned changes · Credits and thanks · Terms Of Service · iPhone/iPad APRS